Time;durP1;ratioP1;P1;durP2;ratioP2;P2;SDS_P1;SDS_P2;PMS_P1;PMS_P2;Temp;Humidity;BMP_temperature;BMP_pressure;BME280_temperature;BME280_humidity;BME280_pressure;Samples;Min_cycle;Max_cycle;Signal;HPM_P1;HPM_P2
2022/05/17 00:00:46;;;;;;;13.90;5.10;;;;;;;;;;5040547;28;20029;-63
2022/05/17 00:03:11;;;;;;;20.08;4.80;;;;;;;;;;5046387;28;20024;-63
2022/05/17 00:05:37;;;;;;;12.30;4.88;;;;;;;;;;5049660;28;20028;-64
2022/05/17 00:08:03;;;;;;;12.48;4.65;;;;;;;;;;5044425;28;20060;-63
2022/05/17 00:10:29;;;;;;;12.07;5.05;;;;;;;;;;5048207;28;20431;-63
2022/05/17 00:12:55;;;;;;;9.80;4.53;;;;;;;;;;5043759;28;20022;-63
2022/05/17 00:15:22;;;;;;;12.43;5.03;;;;;;;;;;5038700;28;20494;-63
2022/05/17 00:17:50;;;;;;;13.02;5.28;;;;;;;;;;5044440;28;20042;-64
2022/05/17 00:20:16;;;;;;;12.45;5.13;;;;;;;;;;5043039;28;20431;-64
2022/05/17 00:22:43;;;;;;;14.75;4.50;;;;;;;;;;5034609;28;20033;-63
2022/05/17 00:25:10;;;;;;;11.32;4.55;;;;;;;;;;5036340;28;20388;-63
2022/05/17 00:27:36;;;;;;;12.30;4.22;;;;;;;;;;5046375;28;20107;-63
2022/05/17 00:30:07;;;;;;;7.22;4.57;;;;;;;;;;5051119;28;20104;-64
2022/05/17 00:32:32;;;;;;;11.27;4.32;;;;;;;;;;5053162;28;20052;-63
2022/05/17 00:34:58;;;;;;;11.73;4.45;;;;;;;;;;5038608;28;20460;-63
2022/05/17 00:37:24;;;;;;;10.57;4.45;;;;;;;;;;5043399;28;20029;-64
2022/05/17 00:39:50;;;;;;;8.02;4.07;;;;;;;;;;5046955;28;20119;-64
2022/05/17 00:42:16;;;;;;;15.73;5.38;;;;;;;;;;5038101;28;20493;-63
2022/05/17 00:44:45;;;;;;;10.98;4.40;;;;;;;;;;5046828;28;20060;-64
2022/05/17 00:47:35;;;;;;;9.02;4.55;;;;;;;;;;5035719;28;20037;-64
2022/05/17 00:50:17;;;;;;;16.50;4.82;;;;;;;;;;5036234;28;20039;-64
2022/05/17 00:52:56;;;;;;;13.55;5.30;;;;;;;;;;5033851;28;20033;-63
2022/05/17 00:55:27;;;;;;;11.48;4.25;;;;;;;;;;5053610;28;20044;-63
2022/05/17 00:58:11;;;;;;;9.40;4.68;;;;;;;;;;5062870;28;20416;-63
2022/05/17 01:00:41;;;;;;;11.73;4.60;;;;;;;;;;5065023;28;20037;-63
2022/05/17 01:03:12;;;;;;;13.98;4.93;;;;;;;;;;5056100;28;20067;-63
2022/05/17 01:05:43;;;;;;;8.45;4.47;;;;;;;;;;5062880;28;20043;-63
2022/05/17 01:08:12;;;;;;;21.42;5.30;;;;;;;;;;5056959;28;20029;-63
2022/05/17 01:10:38;;;;;;;12.18;5.28;;;;;;;;;;5065620;28;20024;-63
2022/05/17 01:15:49;;;;;;;10.73;5.10;;;;;;;;;;5060460;28;20032;-64
2022/05/17 01:18:14;;;;;;;15.60;5.00;;;;;;;;;;5056063;28;20040;-63
2022/05/17 01:20:40;;;;;;;9.77;4.43;;;;;;;;;;5060137;28;20035;-63
2022/05/17 01:23:06;;;;;;;12.45;4.53;;;;;;;;;;5059306;28;20024;-63
2022/05/17 01:25:34;;;;;;;8.18;4.50;;;;;;;;;;5063506;28;20389;-63
2022/05/17 01:28:18;;;;;;;8.73;4.60;;;;;;;;;;5054050;28;20069;-63
2022/05/17 01:30:44;;;;;;;14.55;4.75;;;;;;;;;;5057776;28;20029;-63
2022/05/17 01:33:18;;;;;;;11.05;4.75;;;;;;;;;;5070969;28;20036;-63
2022/05/17 01:35:43;;;;;;;16.58;4.90;;;;;;;;;;5065048;28;20039;-63
2022/05/17 01:38:10;;;;;;;9.52;4.57;;;;;;;;;;5055765;28;20037;-63
2022/05/17 01:40:36;;;;;;;8.38;4.07;;;;;;;;;;5063895;28;20025;-63
2022/05/17 01:43:02;;;;;;;11.40;5.07;;;;;;;;;;5066038;28;20068;-63
2022/05/17 01:45:28;;;;;;;15.95;5.57;;;;;;;;;;5045547;28;20021;-63
2022/05/17 01:47:54;;;;;;;8.38;4.45;;;;;;;;;;5054946;28;20051;-63
2022/05/17 01:50:20;;;;;;;11.85;4.95;;;;;;;;;;5063701;28;20025;-62
2022/05/17 01:52:45;;;;;;;12.85;4.85;;;;;;;;;;5052451;28;20062;-62
2022/05/17 01:55:12;;;;;;;7.63;4.43;;;;;;;;;;5060844;28;20044;-62
2022/05/17 01:57:37;;;;;;;15.88;4.97;;;;;;;;;;5056668;28;20426;-63
2022/05/17 02:00:06;;;;;;;7.57;4.20;;;;;;;;;;5073683;28;20107;-63
2022/05/17 02:02:32;;;;;;;8.18;4.88;;;;;;;;;;5054257;28;20033;-63
2022/05/17 02:04:58;;;;;;;12.20;4.78;;;;;;;;;;5060755;28;20025;-63
2022/05/17 02:07:24;;;;;;;14.10;5.18;;;;;;;;;;5055461;28;20035;-63
2022/05/17 02:09:49;;;;;;;10.50;4.53;;;;;;;;;;5069845;28;20037;-63
2022/05/17 02:12:15;;;;;;;14.48;5.15;;;;;;;;;;5067689;28;20028;-62
2022/05/17 02:14:41;;;;;;;12.65;4.88;;;;;;;;;;5056222;28;20033;-63
2022/05/17 02:17:07;;;;;;;11.80;5.30;;;;;;;;;;5059916;28;20110;-63
2022/05/17 02:19:32;;;;;;;11.80;4.97;;;;;;;;;;5054041;28;20056;-62
2022/05/17 02:21:58;;;;;;;13.57;4.95;;;;;;;;;;5067344;28;20039;-63
2022/05/17 02:24:27;;;;;;;13.52;4.80;;;;;;;;;;5066931;28;20369;-63
2022/05/17 02:26:53;;;;;;;12.55;5.20;;;;;;;;;;5062106;28;20036;-63
2022/05/17 02:29:19;;;;;;;11.23;4.97;;;;;;;;;;5066084;28;20048;-63
2022/05/17 02:31:45;;;;;;;11.30;4.90;;;;;;;;;;5066768;28;20029;-63
2022/05/17 02:34:11;;;;;;;9.27;4.72;;;;;;;;;;5057287;28;20025;-63
2022/05/17 02:36:36;;;;;;;12.98;5.20;;;;;;;;;;5055043;28;20409;-63
2022/05/17 02:39:02;;;;;;;11.18;4.97;;;;;;;;;;5061123;28;20029;-63
2022/05/17 02:41:28;;;;;;;14.57;4.82;;;;;;;;;;5053413;28;20032;-63
2022/05/17 02:43:54;;;;;;;15.18;5.03;;;;;;;;;;5057961;28;20025;-63
2022/05/17 02:46:19;;;;;;;11.95;4.95;;;;;;;;;;5053271;28;20024;-62
2022/05/17 02:48:45;;;;;;;12.43;5.63;;;;;;;;;;5059545;28;20363;-63
2022/05/17 02:51:19;;;;;;;18.85;5.32;;;;;;;;;;5057190;28;20140;-62
2022/05/17 02:53:44;;;;;;;15.05;4.53;;;;;;;;;;5061341;28;20059;-62
2022/05/17 02:56:10;;;;;;;14.00;5.00;;;;;;;;;;5063900;28;20040;-62
2022/05/17 02:58:37;;;;;;;10.45;5.38;;;;;;;;;;5069950;28;20035;-62
2022/05/17 03:01:03;;;;;;;11.63;4.75;;;;;;;;;;5060622;28;20028;-63
2022/05/17 03:03:30;;;;;;;12.25;4.43;;;;;;;;;;5067136;28;20056;-63
2022/05/17 03:05:55;;;;;;;13.57;4.88;;;;;;;;;;5064111;28;20057;-63
2022/05/17 03:08:21;;;;;;;15.63;4.85;;;;;;;;;;5065615;28;20036;-63
2022/05/17 03:10:47;;;;;;;11.25;4.65;;;;;;;;;;5059378;28;20120;-63
2022/05/17 03:13:14;;;;;;;12.88;4.35;;;;;;;;;;5063410;28;20584;-62
2022/05/17 03:15:41;;;;;;;11.23;4.55;;;;;;;;;;5058933;28;20541;-62
2022/05/17 03:18:06;;;;;;;10.07;4.65;;;;;;;;;;5064954;28;20029;-62
2022/05/17 03:20:32;;;;;;;14.80;5.20;;;;;;;;;;5066190;28;20039;-62
2022/05/17 03:22:58;;;;;;;14.65;4.30;;;;;;;;;;5065102;28;20684;-62
2022/05/17 03:25:24;;;;;;;7.93;4.20;;;;;;;;;;5049827;28;20039;-62
2022/05/17 03:27:53;;;;;;;5.47;4.20;;;;;;;;;;5063341;28;20048;-62
2022/05/17 03:30:19;;;;;;;13.57;4.70;;;;;;;;;;5070138;28;20048;-62
2022/05/17 03:32:45;;;;;;;11.25;4.93;;;;;;;;;;5055722;28;20035;-62
2022/05/17 03:35:12;;;;;;;9.23;5.15;;;;;;;;;;5063279;28;20101;-62
2022/05/17 03:37:38;;;;;;;8.50;4.53;;;;;;;;;;5066804;28;20035;-63
2022/05/17 03:40:04;;;;;;;6.80;4.30;;;;;;;;;;5059702;28;20025;-62
2022/05/17 03:42:30;;;;;;;12.68;5.30;;;;;;;;;;5064013;28;20024;-62
2022/05/17 03:44:56;;;;;;;8.48;4.28;;;;;;;;;;5060447;28;20044;-62
2022/05/17 03:47:22;;;;;;;7.38;4.50;;;;;;;;;;5059929;28;20481;-63
2022/05/17 03:49:48;;;;;;;9.40;4.70;;;;;;;;;;5065873;28;20115;-62
2022/05/17 03:52:14;;;;;;;12.70;4.65;;;;;;;;;;5065806;28;20112;-61
2022/05/17 03:54:40;;;;;;;8.57;5.05;;;;;;;;;;5070744;28;20044;-62
2022/05/17 03:57:07;;;;;;;6.97;4.70;;;;;;;;;;5063908;28;20036;-62
2022/05/17 03:59:33;;;;;;;10.15;4.68;;;;;;;;;;5061390;28;20067;-61
2022/05/17 04:01:58;;;;;;;10.23;4.43;;;;;;;;;;5061137;28;20032;-63
2022/05/17 04:04:24;;;;;;;8.05;4.40;;;;;;;;;;5066300;28;20025;-62
2022/05/17 04:06:50;;;;;;;10.68;4.55;;;;;;;;;;5060592;28;20040;-62
2022/05/17 04:09:16;;;;;;;10.23;4.93;;;;;;;;;;5067006;28;20598;-62
2022/05/17 04:11:41;;;;;;;10.27;5.22;;;;;;;;;;5065217;28;20378;-62
2022/05/17 04:14:08;;;;;;;8.98;4.68;;;;;;;;;;5062813;28;20090;-62
2022/05/17 04:16:37;;;;;;;10.05;4.60;;;;;;;;;;5057283;28;20158;-62
2022/05/17 04:19:04;;;;;;;7.03;4.38;;;;;;;;;;5054395;28;20031;-62
2022/05/17 04:21:31;;;;;;;11.27;4.60;;;;;;;;;;5056897;28;20099;-62
2022/05/17 04:23:57;;;;;;;9.57;4.47;;;;;;;;;;5053220;28;20051;-62
2022/05/17 04:26:23;;;;;;;12.77;5.88;;;;;;;;;;5057938;28;20116;-62
2022/05/17 04:28:49;;;;;;;13.85;4.53;;;;;;;;;;5057919;28;20046;-62
2022/05/17 04:31:16;;;;;;;17.67;4.90;;;;;;;;;;5064544;28;20066;-62
2022/05/17 04:33:42;;;;;;;9.80;4.47;;;;;;;;;;5053285;28;20149;-62
2022/05/17 04:36:09;;;;;;;11.20;4.35;;;;;;;;;;5067084;28;20048;-62
2022/05/17 04:38:35;;;;;;;13.98;4.40;;;;;;;;;;5064510;28;20268;-62
2022/05/17 04:41:01;;;;;;;8.02;4.40;;;;;;;;;;5068108;28;20017;-62
2022/05/17 04:43:27;;;;;;;11.75;4.10;;;;;;;;;;5054003;28;20032;-62
2022/05/17 04:45:54;;;;;;;11.50;4.63;;;;;;;;;;5050411;28;20037;-62
2022/05/17 04:48:20;;;;;;;6.78;4.28;;;;;;;;;;5062649;28;20384;-62
2022/05/17 04:50:46;;;;;;;6.35;3.45;;;;;;;;;;5062690;28;20036;-62
2022/05/17 04:53:12;;;;;;;9.60;4.10;;;;;;;;;;5058464;28;20127;-62
2022/05/17 04:55:37;;;;;;;13.77;4.68;;;;;;;;;;5059132;28;20045;-62
2022/05/17 04:58:03;;;;;;;9.48;5.00;;;;;;;;;;5058195;28;20538;-62
2022/05/17 05:00:29;;;;;;;13.65;4.13;;;;;;;;;;5067364;28;20095;-62
2022/05/17 05:02:55;;;;;;;9.45;4.25;;;;;;;;;;5055529;28;20037;-62
2022/05/17 05:05:22;;;;;;;12.50;4.35;;;;;;;;;;5057508;28;20041;-62
2022/05/17 05:07:48;;;;;;;10.52;4.13;;;;;;;;;;5068488;28;20055;-62
2022/05/17 05:10:14;;;;;;;13.38;4.28;;;;;;;;;;5062897;28;20548;-61
2022/05/17 05:12:40;;;;;;;12.18;4.22;;;;;;;;;;5060398;28;20056;-62
2022/05/17 05:15:07;;;;;;;8.23;3.78;;;;;;;;;;5060327;28;20067;-62
2022/05/17 05:17:35;;;;;;;11.02;4.22;;;;;;;;;;5055581;28;20043;-61
2022/05/17 05:20:01;;;;;;;10.43;3.53;;;;;;;;;;5058884;28;20035;-62
2022/05/17 05:22:29;;;;;;;18.25;4.00;;;;;;;;;;5064527;28;20111;-62
2022/05/17 05:24:55;;;;;;;13.52;4.65;;;;;;;;;;5058130;28;20059;-62
2022/05/17 05:27:21;;;;;;;12.13;3.78;;;;;;;;;;5059521;28;20208;-62
2022/05/17 05:29:47;;;;;;;15.13;4.50;;;;;;;;;;5066538;28;20048;-62
2022/05/17 05:32:12;;;;;;;8.70;4.00;;;;;;;;;;5054508;28;20059;-61
2022/05/17 05:34:38;;;;;;;9.43;4.00;;;;;;;;;;5065666;28;20028;-62
2022/05/17 05:37:05;;;;;;;8.00;4.00;;;;;;;;;;5052400;28;20033;-62
2022/05/17 05:39:31;;;;;;;9.60;3.75;;;;;;;;;;5066510;28;20029;-62
2022/05/17 05:41:56;;;;;;;12.18;4.32;;;;;;;;;;5059790;28;21968;-62
2022/05/17 05:44:22;;;;;;;8.90;4.20;;;;;;;;;;5054364;28;20206;-62
2022/05/17 05:46:48;;;;;;;10.57;3.75;;;;;;;;;;5060984;28;20119;-62
2022/05/17 05:49:14;;;;;;;7.25;3.90;;;;;;;;;;5053892;28;20024;-62
2022/05/17 05:51:40;;;;;;;10.02;3.70;;;;;;;;;;5056183;28;20024;-62
2022/05/17 05:54:07;;;;;;;10.07;4.00;;;;;;;;;;5062903;28;20052;-61
2022/05/17 05:56:32;;;;;;;19.67;3.90;;;;;;;;;;5062799;28;20035;-62
2022/05/17 05:58:58;;;;;;;10.40;3.90;;;;;;;;;;5055429;28;20025;-62
2022/05/17 06:01:26;;;;;;;7.38;3.58;;;;;;;;;;5064731;28;20020;-62
2022/05/17 06:03:52;;;;;;;8.43;3.78;;;;;;;;;;5057339;28;20482;-62
2022/05/17 06:06:18;;;;;;;14.15;3.78;;;;;;;;;;5063403;28;20074;-62
2022/05/17 06:08:43;;;;;;;19.33;3.83;;;;;;;;;;5060600;28;20044;-62
2022/05/17 06:11:09;;;;;;;11.85;3.90;;;;;;;;;;5061915;28;20554;-62
2022/05/17 06:13:36;;;;;;;7.00;3.92;;;;;;;;;;5057886;28;20051;-62
2022/05/17 06:16:02;;;;;;;7.68;3.15;;;;;;;;;;5048883;28;20381;-61
2022/05/17 06:18:28;;;;;;;9.98;3.65;;;;;;;;;;5061144;28;20028;-62
2022/05/17 06:20:55;;;;;;;17.83;3.95;;;;;;;;;;5056486;28;20026;-62
2022/05/17 06:23:22;;;;;;;19.45;4.10;;;;;;;;;;5064441;28;20115;-62
2022/05/17 06:25:48;;;;;;;28.13;4.63;;;;;;;;;;5059857;28;20111;-62
2022/05/17 06:28:14;;;;;;;26.45;4.72;;;;;;;;;;5056463;28;20031;-62
2022/05/17 06:30:41;;;;;;;10.18;4.13;;;;;;;;;;5068599;28;20053;-62
2022/05/17 06:33:08;;;;;;;15.48;3.72;;;;;;;;;;5070408;28;20041;-62
2022/05/17 06:35:34;;;;;;;15.52;4.10;;;;;;;;;;5060599;28;20370;-61
2022/05/17 06:37:59;;;;;;;17.48;3.45;;;;;;;;;;5065814;28;20035;-62
2022/05/17 06:40:25;;;;;;;14.10;3.97;;;;;;;;;;5071138;28;20483;-62
2022/05/17 06:42:51;;;;;;;16.35;4.20;;;;;;;;;;5057573;28;20036;-62
2022/05/17 06:45:17;;;;;;;20.90;4.03;;;;;;;;;;5072282;28;20446;-62
2022/05/17 06:47:42;;;;;;;15.15;4.30;;;;;;;;;;5064314;28;20404;-62
2022/05/17 06:50:10;;;;;;;13.90;3.60;;;;;;;;;;5063515;28;20033;-62
2022/05/17 06:52:36;;;;;;;10.70;3.40;;;;;;;;;;5062897;28;20116;-62
2022/05/17 06:55:04;;;;;;;26.73;4.75;;;;;;;;;;5065274;28;20120;-62
2022/05/17 06:57:30;;;;;;;17.33;3.78;;;;;;;;;;5059471;28;20040;-62
2022/05/17 06:59:55;;;;;;;18.20;4.53;;;;;;;;;;5062337;28;20060;-62
2022/05/17 07:02:21;;;;;;;24.90;3.90;;;;;;;;;;5063398;28;20393;-62
2022/05/17 07:04:48;;;;;;;10.15;3.22;;;;;;;;;;5057152;28;20474;-62
2022/05/17 07:07:13;;;;;;;36.15;6.22;;;;;;;;;;5058186;28;20086;-62
2022/05/17 07:09:39;;;;;;;24.70;4.55;;;;;;;;;;5060692;28;20456;-62
2022/05/17 07:14:50;;;;;;;11.82;3.17;;;;;;;;;;5063070;28;20029;-62
2022/05/17 07:17:20;;;;;;;12.85;4.28;;;;;;;;;;5074920;28;20045;-62
2022/05/17 07:19:46;;;;;;;12.73;3.85;;;;;;;;;;5061789;28;20115;-61
2022/05/17 07:22:12;;;;;;;13.60;4.25;;;;;;;;;;5057875;28;20037;-60
2022/05/17 07:24:41;;;;;;;7.03;3.65;;;;;;;;;;5058499;28;20047;-62
2022/05/17 07:27:07;;;;;;;14.05;4.07;;;;;;;;;;5065861;28;20037;-62
2022/05/17 07:29:33;;;;;;;144.23;14.05;;;;;;;;;;5058726;28;20020;-62
2022/05/17 07:32:00;;;;;;;29.02;4.85;;;;;;;;;;5063006;28;20040;-62
2022/05/17 07:34:27;;;;;;;18.15;3.95;;;;;;;;;;5061752;28;20529;-62
2022/05/17 07:36:53;;;;;;;18.80;3.92;;;;;;;;;;5060923;28;20098;-62
2022/05/17 07:39:19;;;;;;;9.65;3.40;;;;;;;;;;5064865;28;20024;-62
2022/05/17 07:41:45;;;;;;;13.55;3.92;;;;;;;;;;5065179;28;20028;-62
2022/05/17 07:44:11;;;;;;;9.60;3.90;;;;;;;;;;5071240;28;20024;-62
2022/05/17 07:46:38;;;;;;;9.77;3.60;;;;;;;;;;5064035;28;20051;-62
2022/05/17 07:49:03;;;;;;;7.90;3.72;;;;;;;;;;5063426;28;20024;-62
2022/05/17 07:51:29;;;;;;;11.35;3.85;;;;;;;;;;5065446;28;20032;-62
2022/05/17 07:53:55;;;;;;;14.48;3.95;;;;;;;;;;5058954;28;20127;-62
2022/05/17 07:56:21;;;;;;;14.40;4.57;;;;;;;;;;5056149;28;20576;-62
2022/05/17 07:58:47;;;;;;;11.82;5.07;;;;;;;;;;5057450;28;20024;-62
2022/05/17 08:01:12;;;;;;;17.05;3.88;;;;;;;;;;5059161;28;20033;-63
2022/05/17 08:03:38;;;;;;;12.73;3.58;;;;;;;;;;5061362;28;20032;-63
2022/05/17 08:06:05;;;;;;;12.27;3.85;;;;;;;;;;5046034;28;20060;-62
2022/05/17 08:08:31;;;;;;;15.10;4.18;;;;;;;;;;5057027;28;20108;-62
2022/05/17 08:10:58;;;;;;;17.27;3.75;;;;;;;;;;5062194;28;20035;-62
2022/05/17 08:13:25;;;;;;;19.15;4.50;;;;;;;;;;5065174;28;20399;-63
2022/05/17 08:15:51;;;;;;;32.83;4.78;;;;;;;;;;5062526;28;20118;-63
2022/05/17 08:18:18;;;;;;;14.00;3.17;;;;;;;;;;5068132;28;20032;-63
2022/05/17 08:20:44;;;;;;;16.25;3.78;;;;;;;;;;5061929;28;20029;-62
2022/05/17 08:23:10;;;;;;;16.58;4.68;;;;;;;;;;5051525;28;20031;-63
2022/05/17 08:28:20;;;;;;;19.20;4.88;;;;;;;;;;5063941;28;20063;-62
2022/05/17 08:30:47;;;;;;;37.15;5.95;;;;;;;;;;5059047;28;20449;-63
2022/05/17 08:33:19;;;;;;;18.27;4.90;;;;;;;;;;5059567;28;20059;-63
2022/05/17 08:35:52;;;;;;;23.80;4.43;;;;;;;;;;5059068;28;20036;-63
2022/05/17 08:38:25;;;;;;;14.25;4.97;;;;;;;;;;5064244;28;20032;-63
2022/05/17 08:41:09;;;;;;;22.02;4.95;;;;;;;;;;5062527;28;20025;-63
2022/05/17 08:43:46;;;;;;;14.07;4.88;;;;;;;;;;5057500;28;20037;-63
2022/05/17 08:46:29;;;;;;;14.50;4.60;;;;;;;;;;5055302;28;21010;-63
2022/05/17 08:48:58;;;;;;;17.73;4.07;;;;;;;;;;5055733;28;20028;-63
2022/05/17 08:51:48;;;;;;;20.13;4.20;;;;;;;;;;5056596;28;20033;-63
2022/05/17 08:54:20;;;;;;;19.05;5.13;;;;;;;;;;5046099;28;20037;-63
2022/05/17 08:56:57;;;;;;;12.40;3.83;;;;;;;;;;5056986;28;20528;-63
2022/05/17 08:59:23;;;;;;;11.63;3.78;;;;;;;;;;5062975;28;20035;-64
2022/05/17 09:01:57;;;;;;;9.23;3.35;;;;;;;;;;5053368;28;20428;-64
2022/05/17 09:04:38;;;;;;;13.07;4.43;;;;;;;;;;5054240;28;20085;-63
2022/05/17 09:07:14;;;;;;;13.70;3.63;;;;;;;;;;5054958;28;20036;-64
2022/05/17 09:09:43;;;;;;;16.75;3.85;;;;;;;;;;5060706;28;20527;-63
2022/05/17 09:12:48;;;;;;;14.75;3.72;;;;;;;;;;5066706;28;20035;-64
2022/05/17 09:15:16;;;;;;;11.63;4.25;;;;;;;;;;5055745;28;20033;-64
2022/05/17 09:17:43;;;;;;;16.15;3.58;;;;;;;;;;5060895;28;20493;-63
2022/05/17 09:20:16;;;;;;;10.00;3.83;;;;;;;;;;5054487;28;20030;-63
2022/05/17 09:22:42;;;;;;;11.30;3.45;;;;;;;;;;5069772;28;20127;-64
2022/05/17 09:25:20;;;;;;;10.15;3.42;;;;;;;;;;5048997;28;20529;-63
2022/05/17 09:27:52;;;;;;;12.98;3.20;;;;;;;;;;5063357;28;20462;-63
2022/05/17 09:30:27;;;;;;;15.40;3.95;;;;;;;;;;5065815;28;20119;-64
2022/05/17 09:33:09;;;;;;;12.05;3.45;;;;;;;;;;5055192;28;20033;-62
2022/05/17 09:35:52;;;;;;;19.05;3.75;;;;;;;;;;5063216;28;20035;-64
2022/05/17 09:38:19;;;;;;;11.68;3.95;;;;;;;;;;5054492;28;20052;-63
2022/05/17 09:40:48;;;;;;;18.63;4.65;;;;;;;;;;5056841;28;20072;-64
2022/05/17 09:43:16;;;;;;;21.95;4.57;;;;;;;;;;5057994;28;20053;-64
2022/05/17 09:45:55;;;;;;;13.30;4.72;;;;;;;;;;5058870;28;20025;-63
2022/05/17 09:54:31;;;;;;;13.88;4.90;;;;;;;;;;5060972;28;20045;-63
2022/05/17 09:57:11;;;;;;;21.10;4.95;;;;;;;;;;5063137;28;20507;-63
2022/05/17 09:59:36;;;;;;;15.00;4.57;;;;;;;;;;5062250;28;20928;-63
2022/05/17 10:02:03;;;;;;;18.98;4.22;;;;;;;;;;5055185;28;20017;-64
2022/05/17 10:04:29;;;;;;;15.43;5.18;;;;;;;;;;5053105;28;20017;-63
2022/05/17 10:06:56;;;;;;;22.20;5.60;;;;;;;;;;5062357;28;20067;-63
2022/05/17 10:09:34;;;;;;;20.52;4.78;;;;;;;;;;5056626;28;20052;-63
2022/05/17 10:12:08;;;;;;;18.58;4.93;;;;;;;;;;5063681;28;20442;-63
2022/05/17 10:14:40;;;;;;;26.10;5.68;;;;;;;;;;5056676;28;20037;-63
2022/05/17 10:17:05;;;;;;;;;;;;;;;;;;5045456;28;20060;-63
2022/05/17 10:19:35;;;;;;;18.73;4.95;;;;;;;;;;5051689;28;19940;-63
2022/05/17 10:22:12;;;;;;;14.55;5.47;;;;;;;;;;5058095;28;20047;-63
2022/05/17 10:24:54;;;;;;;17.17;4.50;;;;;;;;;;5063827;28;20413;-64
2022/05/17 10:27:27;;;;;;;18.55;5.50;;;;;;;;;;5058141;28;20363;-63
2022/05/17 10:30:05;;;;;;;24.40;5.03;;;;;;;;;;5056695;28;20166;-63
2022/05/17 10:32:44;;;;;;;11.93;4.60;;;;;;;;;;5056215;28;20032;-63
2022/05/17 10:35:38;;;;;;;15.55;4.75;;;;;;;;;;5054437;28;20021;-63
2022/05/17 10:38:34;;;;;;;20.23;4.35;;;;;;;;;;5054357;28;20388;-63
2022/05/17 10:41:05;;;;;;;17.85;4.47;;;;;;;;;;5058133;28;20489;-63
2022/05/17 10:43:41;;;;;;;12.25;4.57;;;;;;;;;;5052347;28;20078;-63
2022/05/17 10:46:37;;;;;;;19.88;3.90;;;;;;;;;;5057137;28;20040;-63
2022/05/17 10:49:24;;;;;;;14.45;4.25;;;;;;;;;;5050107;28;20047;-63
2022/05/17 10:52:28;;;;;;;19.80;4.70;;;;;;;;;;5055935;28;20081;-63
2022/05/17 10:55:00;;;;;;;17.42;4.47;;;;;;;;;;5017279;28;20037;-62
2022/05/17 10:57:33;;;;;;;12.70;4.80;;;;;;;;;;5018964;28;20046;-63
2022/05/17 11:00:09;;;;;;;16.92;4.13;;;;;;;;;;5012833;28;20483;-63
2022/05/17 11:02:59;;;;;;;13.23;4.25;;;;;;;;;;5016701;28;20056;-63
2022/05/17 11:06:02;;;;;;;13.88;4.28;;;;;;;;;;5020983;28;20442;-65
2022/05/17 11:08:53;;;;;;;16.17;4.32;;;;;;;;;;5013038;28;20115;-63
2022/05/17 11:11:34;;;;;;;10.77;3.90;;;;;;;;;;5012270;28;20026;-63
2022/05/17 11:14:07;;;;;;;22.77;4.70;;;;;;;;;;5015655;28;20044;-63
2022/05/17 11:16:54;;;;;;;11.27;3.97;;;;;;;;;;5016504;28;20072;-63
2022/05/17 11:19:38;;;;;;;12.23;3.80;;;;;;;;;;5022737;28;20088;-63
2022/05/17 11:22:19;;;;;;;12.38;4.40;;;;;;;;;;5023844;28;20413;-63
2022/05/17 11:25:00;;;;;;;20.30;4.18;;;;;;;;;;5017500;28;20045;-64
2022/05/17 11:27:36;;;;;;;19.73;4.20;;;;;;;;;;5014159;28;20080;-64
2022/05/17 11:30:12;;;;;;;11.98;4.28;;;;;;;;;;5018036;28;20034;-64
2022/05/17 11:32:42;;;;;;;8.68;3.78;;;;;;;;;;5053237;28;20528;-64
2022/05/17 11:35:26;;;;;;;15.50;4.00;;;;;;;;;;5068670;28;20036;-64
2022/05/17 11:37:53;;;;;;;18.88;3.88;;;;;;;;;;5060218;28;20098;-63
2022/05/17 11:40:47;;;;;;;14.45;4.10;;;;;;;;;;5072463;28;20032;-64
2022/05/17 11:46:03;;;;;;;18.90;4.45;;;;;;;;;;5060232;28;20029;-64
2022/05/17 11:48:52;;;;;;;18.60;4.60;;;;;;;;;;5062132;28;20162;-64
2022/05/17 11:51:18;;;;;;;18.98;4.35;;;;;;;;;;5064514;28;20056;-64
2022/05/17 11:53:48;;;;;;;11.13;4.50;;;;;;;;;;5056818;28;20060;-64
2022/05/17 11:56:32;;;;;;;20.20;4.45;;;;;;;;;;5061628;28;20081;-63
2022/05/17 11:59:13;;;;;;;11.10;4.95;;;;;;;;;;5062400;28;20021;-64
2022/05/17 12:01:39;;;;;;;17.77;4.50;;;;;;;;;;5060046;28;20039;-64
2022/05/17 12:04:21;;;;;;;18.95;4.47;;;;;;;;;;5056222;28;20029;-64
2022/05/17 12:06:53;;;;;;;11.40;3.90;;;;;;;;;;5066084;28;20115;-64
2022/05/17 12:09:31;;;;;;;22.40;4.57;;;;;;;;;;5064640;28;20115;-64
2022/05/17 12:12:28;;;;;;;15.18;4.50;;;;;;;;;;5057825;28;20039;-63
2022/05/17 12:15:33;;;;;;;16.55;4.20;;;;;;;;;;5056141;28;20047;-63
2022/05/17 12:18:36;;;;;;;15.30;4.63;;;;;;;;;;5069724;28;20028;-64
2022/05/17 12:21:15;;;;;;;15.75;4.47;;;;;;;;;;5066646;28;20429;-63
2022/05/17 12:23:54;;;;;;;9.95;3.42;;;;;;;;;;5059151;28;20040;-64
2022/05/17 12:26:46;;;;;;;10.13;4.13;;;;;;;;;;5060620;28;20067;-63
2022/05/17 12:32:04;;;;;;;23.48;4.78;;;;;;;;;;5061856;28;20546;-63
2022/05/17 12:34:30;;;;;;;18.27;4.28;;;;;;;;;;5062605;28;20384;-63
2022/05/17 12:37:16;;;;;;;21.65;4.45;;;;;;;;;;5059718;28;20036;-63
2022/05/17 12:45:20;;;;;;;15.63;4.82;;;;;;;;;;5060800;28;20025;-63
2022/05/17 12:47:52;;;;;;;13.70;3.60;;;;;;;;;;5059908;28;22109;-63
2022/05/17 12:50:41;;;;;;;15.98;4.35;;;;;;;;;;5055679;28;20029;-63
2022/05/17 12:53:21;;;;;;;16.85;4.30;;;;;;;;;;5058435;28;20082;-63
2022/05/17 12:56:11;;;;;;;18.88;4.63;;;;;;;;;;5063583;28;20446;-63
2022/05/17 12:58:57;;;;;;;12.40;4.20;;;;;;;;;;5062973;28;20035;-63
2022/05/17 13:01:38;;;;;;;11.45;4.20;;;;;;;;;;5053780;28;20031;-64
2022/05/17 13:04:09;;;;;;;10.77;4.03;;;;;;;;;;5056165;28;20028;-64
2022/05/17 13:06:41;;;;;;;11.30;4.80;;;;;;;;;;5059181;28;20104;-64
2022/05/17 13:09:19;;;;;;;15.05;4.30;;;;;;;;;;5065785;28;20070;-63
2022/05/17 13:11:45;;;;;;;20.50;4.15;;;;;;;;;;5065650;28;20024;-63
2022/05/17 13:14:22;;;;;;;24.05;4.75;;;;;;;;;;5058708;28;20028;-64
2022/05/17 13:16:51;;;;;;;13.02;4.65;;;;;;;;;;5060543;28;20410;-63
2022/05/17 13:19:22;;;;;;;13.40;4.47;;;;;;;;;;5058586;28;20036;-64
2022/05/17 13:21:54;;;;;;;15.53;4.60;;;;;;;;;;5060104;28;20056;-63
2022/05/17 13:24:34;;;;;;;21.08;4.85;;;;;;;;;;5058945;28;20269;-63
2022/05/17 13:27:11;;;;;;;20.17;5.20;;;;;;;;;;5055269;28;20042;-63
2022/05/17 13:29:40;;;;;;;21.13;4.50;;;;;;;;;;5057705;28;20523;-64
2022/05/17 13:32:12;;;;;;;22.98;5.15;;;;;;;;;;5059057;28;20427;-63
2022/05/17 13:34:40;;;;;;;;;;;;;;;;;;5060498;28;20037;-63
2022/05/17 13:37:15;;;;;;;11.95;4.40;;;;;;;;;;5055453;28;19944;-63
2022/05/17 13:39:46;;;;;;;21.48;4.45;;;;;;;;;;5063657;28;20642;-63
2022/05/17 13:42:26;;;;;;;18.63;4.93;;;;;;;;;;5054841;28;20020;-64
2022/05/17 13:44:58;;;;;;;20.75;4.78;;;;;;;;;;5052379;28;20024;-63
2022/05/17 13:47:34;;;;;;;15.07;4.43;;;;;;;;;;5061785;28;20468;-64
2022/05/17 13:50:01;;;;;;;14.52;4.47;;;;;;;;;;5063330;28;20035;-63
2022/05/17 13:52:34;;;;;;;16.92;4.63;;;;;;;;;;5054320;28;20021;-63
2022/05/17 13:55:10;;;;;;;12.48;4.15;;;;;;;;;;5054902;28;20049;-63
2022/05/17 13:57:41;;;;;;;15.35;4.43;;;;;;;;;;5063275;28;21014;-64
2022/05/17 14:00:19;;;;;;;15.77;4.13;;;;;;;;;;5055511;28;20023;-64
2022/05/17 14:02:47;;;;;;;19.20;3.83;;;;;;;;;;5058668;28;20038;-63
2022/05/17 14:05:23;;;;;;;16.80;4.05;;;;;;;;;;5063755;28;20472;-63
2022/05/17 14:07:54;;;;;;;10.45;3.92;;;;;;;;;;5058618;28;20116;-63
2022/05/17 14:13:14;;;;;;;14.55;4.40;;;;;;;;;;5054084;28;20029;-63
2022/05/17 14:15:41;;;;;;;14.75;4.20;;;;;;;;;;5054202;28;20044;-63
2022/05/17 14:18:13;;;;;;;13.13;4.75;;;;;;;;;;5065103;28;20444;-63
2022/05/17 14:20:40;;;;;;;13.57;4.00;;;;;;;;;;5056930;28;20244;-63
2022/05/17 14:23:06;;;;;;;9.85;4.18;;;;;;;;;;5058945;28;20082;-63
2022/05/17 14:25:32;;;;;;;11.38;4.45;;;;;;;;;;5060482;28;20028;-63
2022/05/17 14:27:58;;;;;;;13.25;4.20;;;;;;;;;;5068165;28;20033;-63
2022/05/17 14:30:27;;;;;;;18.00;4.63;;;;;;;;;;5063221;28;20635;-63
2022/05/17 14:32:54;;;;;;;15.23;4.07;;;;;;;;;;5064860;28;20027;-55
2022/05/17 14:35:23;;;;;;;12.98;3.90;;;;;;;;;;5062792;28;20036;-63
2022/05/17 14:37:49;;;;;;;11.65;3.97;;;;;;;;;;5061370;28;20033;-63
2022/05/17 14:40:15;;;;;;;16.17;4.05;;;;;;;;;;5066686;28;20017;-64
2022/05/17 14:42:43;;;;;;;13.70;4.82;;;;;;;;;;5056191;28;20112;-63
2022/05/17 14:45:09;;;;;;;17.02;3.95;;;;;;;;;;5057353;28;20059;-63
2022/05/17 14:47:36;;;;;;;18.48;4.55;;;;;;;;;;5057224;28;20036;-63
2022/05/17 14:50:02;;;;;;;9.57;3.80;;;;;;;;;;5060816;28;20029;-66
2022/05/17 14:52:29;;;;;;;14.02;4.05;;;;;;;;;;5062010;28;20346;-64
2022/05/17 14:54:55;;;;;;;17.15;3.78;;;;;;;;;;5066611;28;20052;-63
2022/05/17 14:57:21;;;;;;;13.77;4.10;;;;;;;;;;5059041;28;20041;-63
2022/05/17 14:59:47;;;;;;;15.55;4.30;;;;;;;;;;5060482;28;20044;-64
2022/05/17 15:02:14;;;;;;;16.20;4.20;;;;;;;;;;5062512;28;20024;-64
2022/05/17 15:04:41;;;;;;;10.25;3.88;;;;;;;;;;5057776;28;20028;-64
2022/05/17 15:07:21;;;;;;;15.65;4.72;;;;;;;;;;5054089;28;20032;-63
2022/05/17 15:09:54;;;;;;;13.02;3.90;;;;;;;;;;5055409;28;20489;-63
2022/05/17 15:12:20;;;;;;;11.38;3.72;;;;;;;;;;5071336;28;20025;-64
2022/05/17 15:14:45;;;;;;;11.55;3.88;;;;;;;;;;5065827;28;20040;-64
2022/05/17 15:17:12;;;;;;;10.05;3.90;;;;;;;;;;5059957;28;20029;-64
2022/05/17 15:19:38;;;;;;;12.90;3.97;;;;;;;;;;5056295;28;20045;-64